createdAt,value
2023-05-12T00:01:20.346Z,100685.36
2023-05-12T00:03:49.079Z,100685.52
2023-05-12T00:06:18.230Z,100691.45
2023-05-12T00:08:47.068Z,100689.09
2023-05-12T00:11:15.809Z,100691.52
2023-05-12T00:13:44.769Z,100688.79
2023-05-12T00:16:15.193Z,100693.38
2023-05-12T00:18:44.059Z,100692.35
2023-05-12T00:21:12.882Z,100692.15
2023-05-12T00:23:41.906Z,100693.68
2023-05-12T00:26:10.600Z,100688.86
2023-05-12T00:28:39.498Z,100693.66
2023-05-12T00:31:08.536Z,100692.88
2023-05-12T00:33:37.345Z,100698.58
2023-05-12T00:36:09.324Z,100695.83
2023-05-12T00:38:38.188Z,100698.35
2023-05-12T00:41:07.086Z,100696.62
2023-05-12T00:43:36.113Z,100699.41
2023-05-12T00:46:06.837Z,100699.78
2023-05-12T00:48:35.918Z,100699.76
2023-05-12T00:51:09.012Z,100698.95
2023-05-12T00:53:48.360Z,100701.02
2023-05-12T00:56:20.117Z,100701.83
2023-05-12T00:58:49.142Z,100703.81
2023-05-12T01:01:18.160Z,100704.98
2023-05-12T01:03:47.389Z,100706.77
2023-05-12T01:06:22.382Z,100710.45
2023-05-12T01:08:51.283Z,100711.88
2023-05-12T01:11:20.308Z,100707.73
2023-05-12T01:13:49.026Z,100714.29
2023-05-12T01:16:24.599Z,100712.80
2023-05-12T01:18:56.410Z,100716.65
2023-05-12T01:21:25.974Z,100718.15
2023-05-12T01:23:58.804Z,100716.89
2023-05-12T01:26:29.432Z,100720.27
2023-05-12T01:28:59.565Z,100717.55
2023-05-12T01:31:29.154Z,100722.10
2023-05-12T01:33:58.001Z,100722.20
2023-05-12T01:36:26.719Z,100720.05
2023-05-12T01:38:55.635Z,100718.96
2023-05-12T01:41:24.476Z,100722.40
2023-05-12T01:43:53.356Z,100725.95
2023-05-12T01:46:22.708Z,100726.70
2023-05-12T01:48:51.746Z,100727.66
2023-05-12T01:51:21.778Z,100729.63
2023-05-12T01:53:50.462Z,100731.40
2023-05-12T01:56:19.580Z,100734.58
2023-05-12T01:58:49.174Z,100735.71
2023-05-12T02:01:17.878Z,100737.98
2023-05-12T02:03:47.093Z,100737.84
2023-05-12T02:06:16.187Z,100739.34
2023-05-12T02:08:44.903Z,100739.02
2023-05-12T02:11:13.676Z,100739.45
2023-05-12T02:13:43.986Z,100737.48
2023-05-12T02:16:13.245Z,100740.15
2023-05-12T02:18:42.217Z,100734.82
2023-05-12T02:21:11.392Z,100737.31
2023-05-12T02:23:40.070Z,100736.55
2023-05-12T02:26:08.880Z,100734.98
2023-05-12T02:28:37.663Z,100736.73
2023-05-12T02:31:06.536Z,100741.94
2023-05-12T02:33:35.581Z,100743.70
2023-05-12T02:36:04.900Z,100747.63
2023-05-12T02:38:34.182Z,100748.30
2023-05-12T02:41:02.904Z,100746.23
2023-05-12T02:43:31.612Z,100747.07
2023-05-12T02:46:00.476Z,100748.08
2023-05-12T02:48:29.600Z,100748.93
2023-05-12T02:50:58.572Z,100751.34
2023-05-12T02:53:28.176Z,100756.21
2023-05-12T02:55:56.963Z,100751.65
2023-05-12T02:58:26.194Z,100755.64
2023-05-12T03:01:06.785Z,100755.23
2023-05-12T03:03:39.547Z,100759.44
2023-05-12T03:06:09.105Z,100760.49
2023-05-12T03:08:37.742Z,100757.01
2023-05-12T03:11:06.574Z,100759.20
2023-05-12T03:13:35.449Z,100758.30
2023-05-12T03:16:04.989Z,100759.27
2023-05-12T03:18:33.983Z,100757.13
2023-05-12T03:21:03.250Z,100756.27
2023-05-12T03:23:32.022Z,100755.48
2023-05-12T03:26:01.052Z,100757.38
2023-05-12T03:28:29.923Z,100756.11
2023-05-12T03:30:58.766Z,100754.23
2023-05-12T03:33:27.662Z,100755.81
2023-05-12T03:35:57.097Z,100759.45
2023-05-12T03:38:25.839Z,100762.92
2023-05-12T03:41:04.421Z,100761.05
2023-05-12T03:43:33.246Z,100759.06
2023-05-12T03:46:02.084Z,100757.84
2023-05-12T03:48:39.683Z,100761.66
2023-05-12T03:51:16.788Z,100757.48
2023-05-12T03:53:53.141Z,100761.75
2023-05-12T03:56:33.658Z,100761.52
2023-05-12T03:59:09.982Z,100767.82
2023-05-12T04:01:46.262Z,100769.33
2023-05-12T04:04:22.067Z,100770.22
2023-05-12T04:06:50.893Z,100769.59
2023-05-12T04:09:20.836Z,100766.50
2023-05-12T04:11:49.612Z,100765.77
2023-05-12T04:14:19.651Z,100770.80
2023-05-12T04:16:50.309Z,100771.60
2023-05-12T04:19:19.183Z,100773.02
2023-05-12T04:21:47.880Z,100775.10
2023-05-12T04:24:16.540Z,100776.35
2023-05-12T04:26:45.262Z,100778.11
2023-05-12T04:29:13.960Z,100778.49
2023-05-12T04:31:42.989Z,100780.59
2023-05-12T04:34:12.016Z,100782.34
2023-05-12T04:36:40.788Z,100785.40
2023-05-12T04:39:09.742Z,100785.29
2023-05-12T04:41:38.756Z,100783.70
2023-05-12T04:44:08.401Z,100786.17
2023-05-12T04:46:37.203Z,100787.20
2023-05-12T04:49:06.084Z,100791.02
2023-05-12T04:51:41.598Z,100793.70
2023-05-12T04:54:11.646Z,100790.36
2023-05-12T04:56:40.541Z,100795.41
2023-05-12T04:59:09.480Z,100794.11
2023-05-12T05:01:38.850Z,100795.34
2023-05-12T05:04:07.773Z,100794.48
2023-05-12T05:06:36.733Z,100790.52
2023-05-12T05:09:05.774Z,100793.68
2023-05-12T05:11:34.827Z,100794.28
2023-05-12T05:14:04.573Z,100799.95
2023-05-12T05:16:34.348Z,100792.17
2023-05-12T05:19:06.462Z,100795.04
2023-05-12T05:21:38.224Z,100799.23
2023-05-12T05:24:09.183Z,100799.09
2023-05-12T05:26:38.215Z,100798.89
2023-05-12T05:29:07.035Z,100801.27
2023-05-12T05:31:38.411Z,100804.08
2023-05-12T05:34:07.300Z,100803.59
2023-05-12T05:36:36.333Z,100808.64
2023-05-12T05:39:05.229Z,100800.56
2023-05-12T05:41:34.200Z,100807.46
2023-05-12T05:44:02.945Z,100802.07
2023-05-12T05:46:31.721Z,100804.35
2023-05-12T05:49:00.713Z,100804.63
2023-05-12T05:51:29.606Z,100807.95
2023-05-12T05:53:58.420Z,100810.70
2023-05-12T05:56:27.961Z,100811.56
2023-05-12T05:58:57.210Z,100817.34
2023-05-12T06:01:26.195Z,100815.77
2023-05-12T06:03:55.117Z,100819.60
2023-05-12T06:06:24.144Z,100823.23
2023-05-12T06:08:55.466Z,100824.14
2023-05-12T06:11:24.432Z,100823.05
2023-05-12T06:13:53.210Z,100824.84
2023-05-12T06:16:22.117Z,100828.17
2023-05-12T06:18:51.141Z,100825.70
2023-05-12T06:21:20.052Z,100829.42
2023-05-12T06:23:48.882Z,100828.60
2023-05-12T06:26:17.753Z,100822.13
2023-05-12T06:28:46.789Z,100827.27
2023-05-12T06:31:15.870Z,100832.91
2023-05-12T06:33:45.171Z,100826.66
2023-05-12T06:36:14.193Z,100830.40
2023-05-12T06:38:43.217Z,100829.77
2023-05-12T06:41:11.936Z,100827.79
2023-05-12T06:43:41.292Z,100832.25
2023-05-12T06:46:10.860Z,100829.84
2023-05-12T06:48:39.611Z,100829.05
2023-05-12T06:51:09.064Z,100831.36
2023-05-12T06:53:42.744Z,100831.85
2023-05-12T06:56:16.409Z,100828.83
2023-05-12T06:58:45.276Z,100825.81
2023-05-12T07:01:14.441Z,100827.73
2023-05-12T07:03:43.551Z,100829.21
2023-05-12T07:06:12.844Z,100828.54
2023-05-12T07:08:42.109Z,100828.14
2023-05-12T07:11:11.201Z,100825.56
2023-05-12T07:13:40.124Z,100835.48
2023-05-12T07:16:09.274Z,100834.06
2023-05-12T07:18:38.369Z,100833.67
2023-05-12T07:21:07.490Z,100831.77
2023-05-12T07:23:37.497Z,100833.70
2023-05-12T07:26:07.560Z,100830.66
2023-05-12T07:28:37.699Z,100836.02
2023-05-12T07:31:08.138Z,100827.52
2023-05-12T07:33:37.323Z,100832.74
2023-05-12T07:36:08.631Z,100832.08
2023-05-12T07:38:37.617Z,100834.48
2023-05-12T07:41:06.769Z,100829.95
2023-05-12T07:43:35.542Z,100833.69
2023-05-12T07:46:04.638Z,100827.22
2023-05-12T07:48:39.224Z,100832.77
2023-05-12T07:54:08.558Z,100834.99
2023-05-12T07:56:37.623Z,100833.56
2023-05-12T07:59:07.191Z,100831.78
2023-05-12T08:01:36.029Z,100835.55
2023-05-12T08:04:05.060Z,100831.38
2023-05-12T08:06:33.998Z,100836.46
2023-05-12T08:09:03.018Z,100832.99
2023-05-12T08:11:32.055Z,100832.76
2023-05-12T08:14:01.012Z,100826.39
2023-05-12T08:16:30.001Z,100824.40
2023-05-12T08:19:00.350Z,100826.89
2023-05-12T08:21:29.565Z,100831.46
2023-05-12T08:23:58.916Z,100825.62
2023-05-12T08:26:27.879Z,100829.71
2023-05-12T08:28:57.879Z,100825.17
2023-05-12T08:31:27.028Z,100839.85
2023-05-12T08:34:08.946Z,100845.24
2023-05-12T08:36:39.806Z,100828.59
2023-05-12T08:39:10.368Z,100841.08
2023-05-12T08:41:44.952Z,100828.30
2023-05-12T08:44:14.351Z,100834.06
2023-05-12T08:46:43.935Z,100820.30
2023-05-12T08:49:16.160Z,100825.30
2023-05-12T08:51:54.418Z,100823.71
2023-05-12T08:54:33.419Z,100819.55
2023-05-12T08:59:38.458Z,100824.89
2023-05-12T09:02:09.743Z,100826.27
2023-05-12T09:04:38.967Z,100830.23
2023-05-12T09:07:08.851Z,100819.77
2023-05-12T09:09:38.688Z,100825.48
2023-05-12T09:12:12.990Z,100825.80
2023-05-12T09:14:45.302Z,100827.14
2023-05-12T09:17:14.149Z,100827.73
2023-05-12T09:19:42.749Z,100830.96
2023-05-12T09:22:14.434Z,100829.41
2023-05-12T09:24:43.779Z,100820.84
2023-05-12T09:27:13.104Z,100817.52
2023-05-12T09:29:59.140Z,100822.73
2023-05-12T09:32:35.795Z,100818.84
2023-05-12T09:35:07.467Z,100818.26
2023-05-12T09:37:36.750Z,100817.66
2023-05-12T09:40:08.163Z,100819.73
2023-05-12T09:42:37.374Z,100813.87
2023-05-12T09:45:09.300Z,100816.80
2023-05-12T09:47:39.443Z,100804.73
2023-05-12T09:50:09.988Z,100813.44
2023-05-12T09:52:40.642Z,100815.29
2023-05-12T09:55:12.383Z,100808.95
2023-05-12T09:57:43.441Z,100812.06
2023-05-12T10:00:36.552Z,100809.92
2023-05-12T10:03:10.317Z,100812.83
2023-05-12T10:05:44.616Z,100809.06
2023-05-12T10:08:17.556Z,100800.83
2023-05-12T10:10:50.183Z,100802.92
2023-05-12T10:13:19.312Z,100815.11
2023-05-12T10:15:50.342Z,100810.45
2023-05-12T10:18:20.142Z,100806.89
2023-05-12T10:20:51.565Z,100809.70
2023-05-12T10:23:21.313Z,100804.31
2023-05-12T10:25:50.929Z,100808.23
2023-05-12T10:28:20.300Z,100813.77
2023-05-12T10:30:50.255Z,100806.05
2023-05-12T10:33:19.214Z,100810.09
2023-05-12T10:35:49.576Z,100811.20
2023-05-12T10:38:20.029Z,100810.59
2023-05-12T10:40:57.670Z,100806.11
2023-05-12T10:43:27.867Z,100801.02
2023-05-12T10:46:10.901Z,100791.48
2023-05-12T10:48:52.199Z,100798.64
2023-05-12T10:51:22.271Z,100801.94
2023-05-12T10:53:56.664Z,100808.77
2023-05-12T10:56:25.526Z,100805.17
2023-05-12T10:59:14.049Z,100804.05
2023-05-12T11:01:56.849Z,100805.55
2023-05-12T11:04:40.343Z,100798.19
2023-05-12T11:07:12.017Z,100800.18
2023-05-12T11:09:56.089Z,100801.41
2023-05-12T11:12:29.439Z,100795.73
2023-05-12T11:15:01.067Z,100793.79
2023-05-12T11:17:30.026Z,100799.59
2023-05-12T11:20:00.319Z,100794.80
2023-05-12T11:22:29.280Z,100799.07
2023-05-12T11:24:58.621Z,100810.21
2023-05-12T11:27:30.163Z,100810.20
2023-05-12T11:30:01.238Z,100806.67
2023-05-12T11:32:30.915Z,100800.51
2023-05-12T11:35:10.927Z,100798.98
2023-05-12T11:37:40.582Z,100799.33
2023-05-12T11:40:20.116Z,100802.33
2023-05-12T11:42:51.835Z,100798.93
2023-05-12T11:45:26.172Z,100804.13
2023-05-12T11:48:08.275Z,100797.98
2023-05-12T11:50:39.774Z,100798.58
2023-05-12T11:53:14.144Z,100800.15
2023-05-12T11:55:52.765Z,100805.70
2023-05-12T11:58:24.089Z,100805.05
2023-05-12T12:00:53.140Z,100800.69
2023-05-12T12:03:22.290Z,100799.44
2023-05-12T12:06:01.760Z,100808.88
2023-05-12T12:08:30.597Z,100803.86
2023-05-12T12:11:00.929Z,100801.64
2023-05-12T12:13:31.810Z,100796.61
2023-05-12T12:16:00.679Z,100801.98
2023-05-12T12:18:29.500Z,100803.52
2023-05-12T12:20:58.306Z,100799.02
2023-05-12T12:23:27.340Z,100792.39
2023-05-12T12:25:56.250Z,100792.30
2023-05-12T12:28:25.356Z,100802.61
2023-05-12T12:30:54.353Z,100800.45
2023-05-12T12:33:23.324Z,100794.54
2023-05-12T12:35:52.259Z,100790.91
2023-05-12T12:38:21.364Z,100795.20
2023-05-12T12:40:51.149Z,100793.48
2023-05-12T12:43:20.039Z,100789.63
2023-05-12T12:45:49.197Z,100789.52
2023-05-12T12:48:18.385Z,100790.75
2023-05-12T12:50:47.298Z,100777.64
2023-05-12T12:53:17.071Z,100782.80
2023-05-12T12:55:45.988Z,100790.92
2023-05-12T12:58:15.177Z,100795.10
2023-05-12T13:00:44.647Z,100783.41
2023-05-12T13:03:38.216Z,100788.48
2023-05-12T13:06:07.587Z,100781.52
2023-05-12T13:08:36.656Z,100781.55
2023-05-12T13:11:05.906Z,100780.08
2023-05-12T13:13:35.600Z,100774.63
2023-05-12T13:16:04.644Z,100767.33
2023-05-12T13:18:33.696Z,100770.30
2023-05-12T13:21:03.944Z,100772.36
2023-05-12T13:23:32.798Z,100782.52
2023-05-12T13:26:01.674Z,100779.50
2023-05-12T13:28:30.590Z,100766.82
2023-05-12T13:30:59.530Z,100765.45
2023-05-12T13:33:28.784Z,100762.88
2023-05-12T13:35:58.672Z,100754.46
2023-05-12T13:38:27.602Z,100755.73
2023-05-12T13:40:57.175Z,100762.70
2023-05-12T13:43:26.360Z,100762.31
2023-05-12T13:45:55.551Z,100765.52
2023-05-12T13:48:24.700Z,100755.06
2023-05-12T13:50:53.640Z,100750.33
2023-05-12T13:53:22.678Z,100745.61
2023-05-12T13:55:51.711Z,100755.23
2023-05-12T13:58:20.790Z,100753.38
2023-05-12T14:00:49.964Z,100747.14
2023-05-12T14:03:19.031Z,100754.40
2023-05-12T14:05:48.825Z,100742.98
2023-05-12T14:08:17.863Z,100743.40
2023-05-12T14:10:46.804Z,100743.73
2023-05-12T14:13:19.744Z,100744.55
2023-05-12T14:15:50.311Z,100754.84
2023-05-12T14:18:19.792Z,100753.67
2023-05-12T14:20:48.767Z,100754.11
2023-05-12T14:23:17.986Z,100747.05
2023-05-12T14:25:47.217Z,100754.69
2023-05-12T14:28:16.162Z,100754.83
2023-05-12T14:30:45.693Z,100750.00
2023-05-12T14:33:15.170Z,100747.91
2023-05-12T14:35:52.908Z,100742.81
2023-05-12T14:38:25.457Z,100743.83
2023-05-12T14:40:55.168Z,100752.67
2023-05-12T14:43:24.432Z,100743.76
2023-05-12T14:45:54.255Z,100734.62
2023-05-12T14:48:25.744Z,100742.36
2023-05-12T14:50:55.997Z,100744.32
2023-05-12T14:53:25.580Z,100743.81
2023-05-12T14:55:54.753Z,100742.63
2023-05-12T14:58:24.713Z,100738.94
2023-05-12T15:00:54.347Z,100734.07
2023-05-12T15:03:23.531Z,100735.08
2023-05-12T15:06:05.500Z,100749.63
2023-05-12T15:08:35.385Z,100742.91
2023-05-12T15:11:05.006Z,100746.48
2023-05-12T15:13:34.402Z,100741.71
2023-05-12T15:16:04.246Z,100742.19
2023-05-12T15:18:33.142Z,100744.06
2023-05-12T15:21:02.032Z,100741.23
2023-05-12T15:23:31.220Z,100736.33
2023-05-12T15:26:15.575Z,100737.96
2023-05-12T15:28:53.838Z,100742.19
2023-05-12T15:31:22.785Z,100740.94
2023-05-12T15:33:51.547Z,100733.48
2023-05-12T15:36:20.393Z,100730.34
2023-05-12T15:38:49.502Z,100738.36
2023-05-12T15:41:18.652Z,100740.67
2023-05-12T15:43:47.773Z,100742.46
2023-05-12T15:46:16.619Z,100738.20
2023-05-12T15:48:45.602Z,100742.02
2023-05-12T15:51:14.376Z,100741.24
2023-05-12T15:53:45.347Z,100737.14
2023-05-12T15:56:14.283Z,100735.77
2023-05-12T15:58:44.816Z,100734.80
2023-05-12T16:01:13.580Z,100736.41
2023-05-12T16:03:42.780Z,100732.90
2023-05-12T16:06:11.612Z,100738.88
2023-05-12T16:08:40.334Z,100737.66
2023-05-12T16:11:09.305Z,100743.16
2023-05-12T16:13:38.473Z,100743.44
2023-05-12T16:16:08.237Z,100736.09
2023-05-12T16:18:37.289Z,100743.32
2023-05-12T16:21:06.769Z,100741.20
2023-05-12T16:23:35.650Z,100739.05
2023-05-12T16:26:04.786Z,100740.72
2023-05-12T16:28:34.426Z,100735.63
2023-05-12T16:31:04.246Z,100743.63
2023-05-12T16:33:32.983Z,100743.31
2023-05-12T16:36:02.033Z,100743.20
2023-05-12T16:38:32.051Z,100733.84
2023-05-12T16:41:01.678Z,100740.36
2023-05-12T16:43:30.388Z,100744.42
2023-05-12T16:46:03.307Z,100744.73
2023-05-12T16:48:33.922Z,100747.20
2023-05-12T16:51:05.026Z,100746.77
2023-05-12T16:53:34.102Z,100743.06
2023-05-12T16:56:03.156Z,100744.56
2023-05-12T16:58:32.797Z,100747.48
2023-05-12T17:01:02.501Z,100745.35
2023-05-12T17:03:32.213Z,100748.96
2023-05-12T17:06:01.399Z,100750.96
2023-05-12T17:08:30.380Z,100753.58
2023-05-12T17:10:59.277Z,100754.16
2023-05-12T17:13:28.521Z,100756.75
2023-05-12T17:15:58.385Z,100760.56
2023-05-12T17:18:27.276Z,100760.11
2023-05-12T17:20:56.385Z,100763.58
2023-05-12T17:23:25.703Z,100765.35
2023-05-12T17:25:54.775Z,100760.31
2023-05-12T17:28:23.688Z,100763.28
2023-05-12T17:30:52.857Z,100770.29
2023-05-12T17:33:22.061Z,100769.75
2023-05-12T17:36:03.847Z,100775.14
2023-05-12T17:38:41.051Z,100775.09
2023-05-12T17:41:10.240Z,100775.61
2023-05-12T17:43:39.321Z,100776.61
2023-05-12T17:46:08.826Z,100776.34
2023-05-12T17:48:38.597Z,100777.77
2023-05-12T17:51:07.957Z,100781.73
2023-05-12T17:53:36.990Z,100781.81
2023-05-12T17:56:07.785Z,100783.66
2023-05-12T17:58:36.915Z,100789.08
2023-05-12T18:01:05.636Z,100788.67
2023-05-12T18:03:34.912Z,100792.36
2023-05-12T18:06:05.166Z,100793.90
2023-05-12T18:08:33.897Z,100793.48
2023-05-12T18:11:02.695Z,100796.44
2023-05-12T18:13:31.529Z,100801.47
2023-05-12T18:16:00.587Z,100800.81
2023-05-12T18:18:29.618Z,100798.24
2023-05-12T18:20:59.171Z,100803.80
2023-05-12T18:23:27.962Z,100805.96
2023-05-12T18:25:56.763Z,100809.36
2023-05-12T18:28:25.586Z,100806.88
2023-05-12T18:30:56.290Z,100808.73
2023-05-12T18:33:29.175Z,100810.84
2023-05-12T18:35:58.228Z,100811.31
2023-05-12T18:38:27.257Z,100815.02
2023-05-12T18:41:00.528Z,100815.81
2023-05-12T18:43:29.241Z,100817.45
2023-05-12T18:45:58.705Z,100816.48
2023-05-12T18:48:27.631Z,100822.48
2023-05-12T18:50:57.085Z,100822.17
2023-05-12T18:53:25.897Z,100827.02
2023-05-12T18:55:55.089Z,100825.39
2023-05-12T18:58:28.462Z,100830.92
2023-05-12T19:00:57.258Z,100829.13
2023-05-12T19:03:26.347Z,100833.80
2023-05-12T19:05:55.492Z,100831.61
2023-05-12T19:08:24.588Z,100831.60
2023-05-12T19:10:53.757Z,100833.17
2023-05-12T19:13:22.610Z,100833.53
2023-05-12T19:15:51.745Z,100835.58
2023-05-12T19:18:21.189Z,100835.03
2023-05-12T19:20:50.326Z,100842.98
2023-05-12T19:23:18.915Z,100843.08
2023-05-12T19:25:47.685Z,100840.81
2023-05-12T19:28:16.530Z,100843.23
2023-05-12T19:30:45.984Z,100845.13
2023-05-12T19:33:17.253Z,100846.36
2023-05-12T19:35:46.917Z,100845.77
2023-05-12T19:38:15.825Z,100849.69
2023-05-12T19:40:44.701Z,100849.99
2023-05-12T19:43:13.788Z,100847.29
2023-05-12T19:45:42.883Z,100854.17
2023-05-12T19:48:12.166Z,100851.52
2023-05-12T19:50:41.431Z,100848.56
2023-05-12T19:53:10.396Z,100850.02
2023-05-12T19:55:39.529Z,100852.42
2023-05-12T19:58:08.564Z,100849.69
2023-05-12T20:00:39.276Z,100856.35
2023-05-12T20:03:08.762Z,100856.27
2023-05-12T20:05:37.901Z,100854.96
2023-05-12T20:08:07.442Z,100848.42
2023-05-12T20:10:37.333Z,100849.59
2023-05-12T20:13:06.227Z,100849.48
2023-05-12T20:15:35.530Z,100856.84
2023-05-12T20:18:05.329Z,100857.72
2023-05-12T20:20:34.323Z,100859.83
2023-05-12T20:23:04.264Z,100855.73
2023-05-12T20:25:35.676Z,100856.95
2023-05-12T20:28:05.240Z,100860.66
2023-05-12T20:30:34.684Z,100862.52
2023-05-12T20:33:04.160Z,100861.45
2023-05-12T20:35:33.049Z,100865.24
2023-05-12T20:38:02.409Z,100865.52
2023-05-12T20:40:31.350Z,100869.50
2023-05-12T20:43:00.812Z,100866.93
2023-05-12T20:45:30.042Z,100863.95
2023-05-12T20:47:59.073Z,100868.27
2023-05-12T20:50:28.854Z,100863.92
2023-05-12T20:52:57.765Z,100866.52
2023-05-12T20:55:26.925Z,100860.11
2023-05-12T20:57:55.948Z,100859.77
2023-05-12T21:00:25.427Z,100860.06
2023-05-12T21:02:55.172Z,100858.58
2023-05-12T21:05:24.335Z,100858.77
2023-05-12T21:07:53.398Z,100858.92
2023-05-12T21:10:22.799Z,100862.86
2023-05-12T21:12:52.443Z,100861.59
2023-05-12T21:15:21.498Z,100868.02
2023-05-12T21:17:50.484Z,100866.34
2023-05-12T21:20:19.760Z,100868.58
2023-05-12T21:22:49.075Z,100868.94
2023-05-12T21:25:18.138Z,100872.55
2023-05-12T21:27:47.673Z,100873.75
2023-05-12T21:30:17.265Z,100871.90
2023-05-12T21:32:46.290Z,100873.65
2023-05-12T21:35:15.173Z,100874.58
2023-05-12T21:37:44.878Z,100872.04
2023-05-12T21:40:15.894Z,100875.82
2023-05-12T21:42:45.392Z,100876.96
2023-05-12T21:45:14.694Z,100874.42
2023-05-12T21:47:46.937Z,100878.98
2023-05-12T21:50:16.188Z,100883.09
2023-05-12T21:52:45.169Z,100880.36
2023-05-12T21:55:14.685Z,100880.17
2023-05-12T21:57:43.652Z,100882.77
2023-05-12T22:00:14.488Z,100886.26
2023-05-12T22:02:44.571Z,100881.65
2023-05-12T22:05:13.522Z,100883.27
2023-05-12T22:07:42.650Z,100883.89
2023-05-12T22:10:11.564Z,100883.98
2023-05-12T22:12:41.169Z,100881.64
2023-05-12T22:15:11.416Z,100884.14
2023-05-12T22:17:40.672Z,100885.11
2023-05-12T22:20:13.154Z,100888.34
2023-05-12T22:22:42.248Z,100884.34
2023-05-12T22:25:12.130Z,100885.23
2023-05-12T22:27:41.369Z,100888.47
2023-05-12T22:30:11.708Z,100891.94
2023-05-12T22:32:41.046Z,100889.80
2023-05-12T22:35:11.563Z,100889.02
2023-05-12T22:37:40.768Z,100892.04
2023-05-12T22:40:11.143Z,100893.42
2023-05-12T22:42:39.947Z,100894.64
2023-05-12T22:45:10.596Z,100895.84
2023-05-12T22:47:39.665Z,100894.35
2023-05-12T22:50:10.025Z,100891.91
2023-05-12T22:52:39.034Z,100892.48
2023-05-12T22:55:09.482Z,100890.69
2023-05-12T22:57:40.358Z,100892.38
2023-05-12T23:00:11.313Z,100894.63
2023-05-12T23:02:40.222Z,100893.87
2023-05-12T23:05:10.922Z,100894.80
2023-05-12T23:07:39.993Z,100897.92
2023-05-12T23:10:10.983Z,100899.31
2023-05-12T23:12:40.258Z,100901.02
2023-05-12T23:15:10.925Z,100903.36
2023-05-12T23:17:39.873Z,100900.30
2023-05-12T23:20:10.908Z,100899.70
2023-05-12T23:22:39.670Z,100898.52
2023-05-12T23:25:10.282Z,100894.84
2023-05-12T23:27:39.262Z,100900.25
2023-05-12T23:30:09.971Z,100900.41
2023-05-12T23:32:39.101Z,100897.91
2023-05-12T23:35:10.128Z,100898.08
2023-05-12T23:37:39.172Z,100898.20
2023-05-12T23:40:10.501Z,100896.63
2023-05-12T23:42:39.376Z,100895.73
2023-05-12T23:45:10.324Z,100893.11
2023-05-12T23:47:39.276Z,100892.36
2023-05-12T23:50:10.022Z,100889.18
2023-05-12T23:52:39.016Z,100885.17
2023-05-12T23:55:09.581Z,100879.04
2023-05-12T23:57:38.503Z,100881.77
